createdAt,value
2023-11-22T00:00:54.651Z,1.92
2023-11-22T00:03:20.916Z,1.95
2023-11-22T00:05:47.082Z,1.88
2023-11-22T00:08:13.273Z,2.02
2023-11-22T00:10:39.439Z,1.87
2023-11-22T00:13:05.581Z,1.77
2023-11-22T00:15:31.765Z,1.91
2023-11-22T00:17:57.996Z,2.02
2023-11-22T00:20:24.240Z,2.20
2023-11-22T00:22:50.545Z,1.96
2023-11-22T00:25:16.728Z,2.03
2023-11-22T00:27:42.916Z,1.67
2023-11-22T00:30:09.078Z,1.88
2023-11-22T00:32:35.275Z,1.67
2023-11-22T00:35:01.554Z,1.80
2023-11-22T00:37:27.856Z,1.83
2023-11-22T00:39:54.033Z,1.61
2023-11-22T00:42:20.181Z,1.75
2023-11-22T00:44:46.342Z,1.83
2023-11-22T00:47:12.516Z,1.77
2023-11-22T00:49:38.706Z,1.77
2023-11-22T00:52:04.865Z,1.75
2023-11-22T00:54:31.051Z,1.73
2023-11-22T00:56:57.219Z,1.79
2023-11-22T00:59:23.387Z,1.85
2023-11-22T01:01:49.649Z,1.70
2023-11-22T01:04:15.875Z,1.73
2023-11-22T01:06:42.123Z,1.76
2023-11-22T01:09:08.312Z,1.77
2023-11-22T01:11:34.531Z,1.90
2023-11-22T01:14:00.881Z,1.93
2023-11-22T01:16:27.097Z,1.98
2023-11-22T01:18:53.279Z,1.88
2023-11-22T01:21:19.440Z,1.91
2023-11-22T01:23:45.597Z,1.99
2023-11-22T01:26:11.784Z,2.17
2023-11-22T01:28:37.965Z,2.14
2023-11-22T01:31:04.137Z,2.10
2023-11-22T01:33:30.313Z,2.03
2023-11-22T01:35:56.487Z,2.08
2023-11-22T01:38:22.660Z,2.04
2023-11-22T01:40:48.836Z,2.16
2023-11-22T01:43:14.990Z,2.13
2023-11-22T01:45:41.185Z,2.10
2023-11-22T01:48:07.405Z,2.20
2023-11-22T01:50:33.617Z,2.30
2023-11-22T01:52:59.832Z,2.59
2023-11-22T01:55:26.015Z,2.44
2023-11-22T01:57:53.232Z,2.27
2023-11-22T02:00:19.372Z,2.16
2023-11-22T02:02:45.819Z,2.22
2023-11-22T02:05:12.145Z,2.21
2023-11-22T02:07:38.322Z,2.26
2023-11-22T02:10:04.502Z,2.30
2023-11-22T02:12:30.651Z,2.37
2023-11-22T02:14:56.835Z,2.36
2023-11-22T02:19:49.253Z,2.43
2023-11-22T02:22:15.421Z,2.44
2023-11-22T02:24:41.565Z,2.37
2023-11-22T02:27:07.758Z,2.36
2023-11-22T02:29:33.976Z,2.47
2023-11-22T02:32:00.185Z,2.41
2023-11-22T02:34:26.372Z,2.32
2023-11-22T02:36:58.486Z,2.43
2023-11-22T02:39:29.479Z,2.40
2023-11-22T02:41:55.653Z,2.35
2023-11-22T02:44:21.857Z,2.32
2023-11-22T02:46:48.005Z,2.22
2023-11-22T02:49:14.153Z,2.28
2023-11-22T02:51:40.310Z,2.35
2023-11-22T02:54:06.471Z,2.50
2023-11-22T02:56:32.678Z,2.37
2023-11-22T02:58:58.901Z,2.51
2023-11-22T03:01:25.101Z,2.38
2023-11-22T03:03:51.321Z,2.30
2023-11-22T03:06:17.528Z,2.26
2023-11-22T03:08:43.689Z,2.18
2023-11-22T03:11:09.867Z,2.36
2023-11-22T03:13:36.038Z,2.27
2023-11-22T03:16:02.193Z,2.54
2023-11-22T03:18:28.343Z,2.24
2023-11-22T03:20:54.505Z,2.15
2023-11-22T03:23:20.699Z,2.26
2023-11-22T03:25:46.898Z,2.24
2023-11-22T03:28:13.052Z,2.20
2023-11-22T03:30:39.216Z,2.28
2023-11-22T03:33:05.433Z,2.18
2023-11-22T03:35:31.667Z,2.16
2023-11-22T03:37:57.906Z,2.15
2023-11-22T03:40:24.065Z,2.16
2023-11-22T03:42:50.226Z,2.12
2023-11-22T03:45:16.374Z,2.18
2023-11-22T03:47:42.594Z,2.19
2023-11-22T03:50:08.861Z,2.10
2023-11-22T03:52:35.094Z,2.15
2023-11-22T03:55:01.257Z,2.15
2023-11-22T03:57:27.418Z,2.19
2023-11-22T03:59:53.580Z,2.08
2023-11-22T04:02:19.761Z,2.08
2023-11-22T04:04:45.944Z,2.29
2023-11-22T04:07:12.092Z,2.12
2023-11-22T04:09:38.264Z,2.04
2023-11-22T04:12:04.443Z,1.68
2023-11-22T04:14:30.646Z,1.75
2023-11-22T04:16:57.343Z,1.68
2023-11-22T04:19:23.799Z,1.58
2023-11-22T04:21:50.267Z,1.44
2023-11-22T04:24:16.415Z,1.53
2023-11-22T04:26:42.748Z,1.76
2023-11-22T04:29:08.949Z,1.61
2023-11-22T04:31:35.146Z,1.81
2023-11-22T04:34:01.543Z,1.73
2023-11-22T04:36:27.893Z,1.68
2023-11-22T04:38:54.070Z,1.67
2023-11-22T04:41:20.260Z,1.57
2023-11-22T04:43:46.438Z,1.63
2023-11-22T04:46:12.612Z,1.65
2023-11-22T04:48:38.833Z,1.76
2023-11-22T04:51:05.031Z,1.74
2023-11-22T04:53:31.270Z,1.71
2023-11-22T04:55:57.446Z,1.76
2023-11-22T04:58:23.598Z,1.87
2023-11-22T05:00:49.794Z,1.80
2023-11-22T05:03:15.999Z,1.84
2023-11-22T05:05:42.275Z,1.72
2023-11-22T05:08:08.509Z,1.83
2023-11-22T05:10:34.687Z,1.86
2023-11-22T05:13:00.973Z,1.68
2023-11-22T05:15:27.254Z,1.62
2023-11-22T05:17:53.456Z,1.83
2023-11-22T05:20:19.666Z,2.00
2023-11-22T05:22:45.855Z,2.02
2023-11-22T05:25:12.022Z,2.14
2023-11-22T05:27:38.216Z,2.18
2023-11-22T05:30:04.488Z,2.23
2023-11-22T05:32:30.735Z,2.09
2023-11-22T05:34:56.933Z,2.16
2023-11-22T05:37:24.788Z,2.15
2023-11-22T05:39:51.075Z,2.26
2023-11-22T05:42:17.235Z,2.11
2023-11-22T05:44:43.485Z,2.00
2023-11-22T05:47:09.731Z,2.45
2023-11-22T05:49:35.936Z,2.31
2023-11-22T05:52:02.090Z,2.32
2023-11-22T05:54:28.269Z,2.19
2023-11-22T05:56:54.435Z,2.21
2023-11-22T05:59:20.654Z,2.25
2023-11-22T06:01:46.814Z,2.17
2023-11-22T06:04:13.050Z,2.12
2023-11-22T06:06:39.267Z,2.12
2023-11-22T06:09:05.419Z,2.10
2023-11-22T06:11:31.601Z,2.13
2023-11-22T06:13:57.748Z,2.19
2023-11-22T06:16:23.952Z,2.14
2023-11-22T06:18:50.139Z,2.04
2023-11-22T06:21:16.311Z,1.98
2023-11-22T06:23:42.500Z,1.99
2023-11-22T06:26:08.807Z,1.91
2023-11-22T06:28:34.975Z,2.08
2023-11-22T06:31:01.207Z,1.95
2023-11-22T06:33:27.409Z,1.87
2023-11-22T06:35:53.631Z,1.97
2023-11-22T06:38:19.814Z,2.07
2023-11-22T06:40:46.010Z,2.08
2023-11-22T06:43:12.167Z,2.09
2023-11-22T06:45:38.325Z,2.17
2023-11-22T06:48:04.625Z,1.88
2023-11-22T06:50:30.834Z,2.07
2023-11-22T06:52:57.046Z,2.31
2023-11-22T06:55:23.202Z,1.98
2023-11-22T06:57:49.366Z,2.00
2023-11-22T07:00:15.521Z,2.04
2023-11-22T07:02:41.832Z,1.99
2023-11-22T07:05:08.157Z,2.11
2023-11-22T07:07:34.362Z,1.68
2023-11-22T07:10:00.879Z,1.83
2023-11-22T07:12:27.281Z,1.77
2023-11-22T07:14:53.457Z,1.77
2023-11-22T07:17:19.636Z,1.79
2023-11-22T07:19:45.841Z,2.09
2023-11-22T07:22:12.052Z,1.91
2023-11-22T07:24:38.206Z,1.80
2023-11-22T07:27:04.443Z,1.90
2023-11-22T07:29:30.683Z,1.86
2023-11-22T07:31:56.913Z,1.90
2023-11-22T07:34:23.075Z,1.84
2023-11-22T07:36:49.241Z,1.88
2023-11-22T07:39:15.390Z,2.01
2023-11-22T07:41:41.615Z,2.27
2023-11-22T07:44:07.816Z,2.51
2023-11-22T07:46:34.056Z,2.39
2023-11-22T07:49:00.267Z,2.39
2023-11-22T07:51:26.436Z,2.46
2023-11-22T07:53:52.618Z,2.46
2023-11-22T07:56:19.876Z,2.45
2023-11-22T07:58:46.154Z,2.62
2023-11-22T08:01:12.327Z,2.78
2023-11-22T08:03:38.597Z,2.75
2023-11-22T08:06:04.826Z,2.56
2023-11-22T08:08:31.062Z,1.55
2023-11-22T08:10:57.237Z,1.86
2023-11-22T08:13:23.387Z,1.74
2023-11-22T08:15:49.645Z,2.10
2023-11-22T08:18:15.870Z,2.40
2023-11-22T08:20:42.110Z,2.58
2023-11-22T08:23:08.317Z,2.83
2023-11-22T08:25:34.505Z,3.00
2023-11-22T08:28:00.663Z,3.00
2023-11-22T08:30:26.830Z,3.10
2023-11-22T08:32:53.074Z,3.13
2023-11-22T08:35:19.342Z,3.25
2023-11-22T08:37:45.515Z,3.34
2023-11-22T08:40:11.679Z,3.42
2023-11-22T08:42:37.826Z,3.45
2023-11-22T08:45:03.981Z,3.53
2023-11-22T08:47:30.251Z,3.69
2023-11-22T08:49:56.460Z,3.73
2023-11-22T08:52:22.627Z,3.92
2023-11-22T08:54:48.796Z,4.44
2023-11-22T08:57:14.951Z,4.12
2023-11-22T08:59:41.130Z,4.05
2023-11-22T09:02:07.309Z,4.10
2023-11-22T09:04:33.501Z,4.30
2023-11-22T09:06:59.662Z,4.24
2023-11-22T09:09:25.826Z,4.37
2023-11-22T09:11:51.993Z,4.46
2023-11-22T09:14:18.210Z,4.08
2023-11-22T09:16:44.384Z,4.57
2023-11-22T09:19:10.647Z,4.49
2023-11-22T09:21:36.830Z,4.51
2023-11-22T09:24:02.989Z,4.53
2023-11-22T09:26:29.190Z,4.69
2023-11-22T09:28:55.349Z,4.79
2023-11-22T09:31:21.514Z,4.56
2023-11-22T09:33:47.698Z,4.45
2023-11-22T09:36:13.854Z,4.67
2023-11-22T09:38:40.099Z,5.01
2023-11-22T09:41:06.297Z,5.16
2023-11-22T09:43:32.556Z,5.29
2023-11-22T09:46:00.086Z,5.23
2023-11-22T09:48:26.828Z,5.69
2023-11-22T09:50:53.136Z,5.35
2023-11-22T09:53:19.336Z,5.27
2023-11-22T09:55:45.519Z,5.40
2023-11-22T09:58:11.689Z,5.35
2023-11-22T10:00:37.837Z,5.37
2023-11-22T10:03:04.150Z,5.26
2023-11-22T10:05:30.420Z,5.14
2023-11-22T10:07:56.611Z,5.39
2023-11-22T10:10:22.782Z,5.56
2023-11-22T10:12:48.951Z,5.74
2023-11-22T10:15:15.119Z,5.95
2023-11-22T10:17:41.360Z,5.93
2023-11-22T10:20:07.555Z,5.81
2023-11-22T10:22:33.736Z,5.70
2023-11-22T10:24:59.903Z,5.94
2023-11-22T10:27:26.092Z,6.09
2023-11-22T10:29:52.259Z,6.08
2023-11-22T10:32:18.621Z,5.87
2023-11-22T10:34:44.832Z,5.94
2023-11-22T10:37:11.024Z,6.41
2023-11-22T10:39:37.214Z,6.41
2023-11-22T10:42:03.401Z,6.30
2023-11-22T10:44:29.619Z,6.36
2023-11-22T10:46:55.820Z,6.46
2023-11-22T10:49:22.006Z,6.90
2023-11-22T10:51:48.177Z,6.74
2023-11-22T10:54:14.335Z,6.95
2023-11-22T10:56:41.048Z,6.92
2023-11-22T10:59:07.416Z,6.84
2023-11-22T11:01:33.634Z,6.71
2023-11-22T11:03:59.908Z,6.88
2023-11-22T11:06:26.099Z,6.72
2023-11-22T11:08:52.293Z,6.67
2023-11-22T11:11:18.489Z,6.66
2023-11-22T11:13:44.663Z,6.53
2023-11-22T11:16:10.885Z,6.60
2023-11-22T11:18:37.148Z,6.50
2023-11-22T11:21:03.324Z,6.40
2023-11-22T11:23:29.515Z,6.51
2023-11-22T11:25:55.717Z,6.47
2023-11-22T11:28:22.110Z,6.52
2023-11-22T11:30:48.379Z,6.39
2023-11-22T11:33:14.614Z,6.30
2023-11-22T11:35:40.905Z,6.34
2023-11-22T11:38:07.081Z,6.29
2023-11-22T11:40:33.244Z,6.25
2023-11-22T11:42:59.396Z,6.24
2023-11-22T11:45:25.579Z,6.19
2023-11-22T11:47:51.823Z,6.23
2023-11-22T11:50:18.064Z,6.15
2023-11-22T11:52:44.250Z,6.17
2023-11-22T11:55:10.421Z,6.23
2023-11-22T11:57:36.589Z,6.20
2023-11-22T12:00:02.819Z,6.15
2023-11-22T12:02:29.161Z,6.14
2023-11-22T12:04:55.396Z,6.09
2023-11-22T12:07:21.566Z,6.16
2023-11-22T12:09:47.729Z,6.11
2023-11-22T12:12:13.888Z,6.00
2023-11-22T12:14:40.047Z,6.19
2023-11-22T12:17:06.219Z,6.20
2023-11-22T12:19:32.458Z,6.25
2023-11-22T12:21:58.684Z,5.87
2023-11-22T12:24:24.846Z,4.65
2023-11-22T12:26:51.069Z,3.65
2023-11-22T12:29:17.304Z,3.38
2023-11-22T12:31:43.479Z,3.86
2023-11-22T12:34:09.641Z,4.60
2023-11-22T12:36:35.793Z,3.63
2023-11-22T12:39:01.957Z,3.39
2023-11-22T12:41:28.128Z,3.12
2023-11-22T12:43:54.277Z,3.10
2023-11-22T12:46:20.490Z,2.98
2023-11-22T12:48:46.666Z,2.95
2023-11-22T12:51:12.813Z,2.98
2023-11-22T12:53:38.961Z,2.80
2023-11-22T12:56:05.153Z,3.04
2023-11-22T12:58:31.322Z,2.91
2023-11-22T13:00:57.516Z,3.28
2023-11-22T13:03:23.887Z,3.35
2023-11-22T13:05:50.177Z,3.86
2023-11-22T13:08:16.450Z,4.03
2023-11-22T13:10:42.641Z,4.03
2023-11-22T13:13:08.814Z,3.52
2023-11-22T13:15:35.030Z,3.64
2023-11-22T13:18:01.355Z,3.34
2023-11-22T13:20:27.621Z,3.64
2023-11-22T13:22:53.807Z,3.82
2023-11-22T13:25:19.995Z,4.19
2023-11-22T13:27:46.182Z,3.94
2023-11-22T13:30:12.512Z,3.80
2023-11-22T13:32:38.739Z,3.59
2023-11-22T13:35:04.942Z,4.31
2023-11-22T13:37:31.087Z,4.07
2023-11-22T13:39:57.271Z,3.93
2023-11-22T13:42:23.451Z,3.64
2023-11-22T13:44:49.685Z,3.23
2023-11-22T13:47:15.873Z,3.39
2023-11-22T13:49:42.023Z,3.07
2023-11-22T13:52:08.182Z,2.91
2023-11-22T13:54:34.341Z,3.05
2023-11-22T13:57:00.523Z,3.18
2023-11-22T13:59:26.720Z,3.35
2023-11-22T14:01:53.884Z,3.43
2023-11-22T14:04:20.177Z,3.79
2023-11-22T14:06:46.348Z,4.02
2023-11-22T14:09:12.582Z,3.37
2023-11-22T14:11:38.828Z,3.29
2023-11-22T14:14:05.030Z,3.42
2023-11-22T14:16:31.213Z,3.47
2023-11-22T14:18:57.402Z,4.42
2023-11-22T14:21:23.561Z,4.69
2023-11-22T14:23:49.755Z,4.62
2023-11-22T14:26:15.943Z,4.57
2023-11-22T14:28:42.117Z,4.60
2023-11-22T14:31:11.329Z,4.76
2023-11-22T14:33:38.529Z,4.98
2023-11-22T14:36:04.776Z,5.09
2023-11-22T14:38:30.999Z,5.17
2023-11-22T14:40:57.169Z,4.96
2023-11-22T14:43:23.326Z,5.07
2023-11-22T14:45:49.523Z,4.94
2023-11-22T14:48:18.330Z,4.76
2023-11-22T14:50:45.161Z,4.82
2023-11-22T14:53:11.414Z,4.57
2023-11-22T14:55:37.603Z,4.40
2023-11-22T14:58:03.750Z,4.50
2023-11-22T15:00:29.896Z,4.28
2023-11-22T15:02:56.092Z,3.80
2023-11-22T15:05:22.310Z,3.85
2023-11-22T15:07:48.484Z,3.69
2023-11-22T15:10:14.668Z,3.44
2023-11-22T15:12:40.831Z,3.30
2023-11-22T15:15:07.006Z,3.23
2023-11-22T15:17:33.212Z,3.42
2023-11-22T15:19:59.426Z,3.49
2023-11-22T15:22:25.578Z,3.54
2023-11-22T15:24:51.737Z,3.41
2023-11-22T15:27:17.941Z,3.32
2023-11-22T15:29:44.202Z,3.43
2023-11-22T15:32:10.386Z,3.32
2023-11-22T15:34:36.545Z,3.10
2023-11-22T15:37:02.705Z,2.94
2023-11-22T15:39:28.859Z,3.01
2023-11-22T15:41:55.039Z,2.81
2023-11-22T15:44:21.211Z,2.58
2023-11-22T15:46:47.439Z,2.56
2023-11-22T15:49:13.624Z,2.24
2023-11-22T15:51:39.810Z,2.10
2023-11-22T15:54:06.035Z,2.07
2023-11-22T15:56:32.417Z,1.98
2023-11-22T15:58:58.672Z,1.96
2023-11-22T16:01:24.849Z,1.90
2023-11-22T16:03:51.080Z,1.61
2023-11-22T16:06:17.358Z,1.66
2023-11-22T16:08:43.538Z,1.55
2023-11-22T16:11:11.017Z,1.29
2023-11-22T16:13:37.478Z,1.16
2023-11-22T16:16:03.660Z,1.20
2023-11-22T16:18:29.895Z,1.28
2023-11-22T16:20:56.127Z,1.48
2023-11-22T16:23:22.335Z,1.61
2023-11-22T16:25:48.508Z,1.30
2023-11-22T16:28:14.684Z,1.07
2023-11-22T16:30:40.856Z,1.05
2023-11-22T16:33:07.102Z,1.07
2023-11-22T16:35:33.355Z,1.22
2023-11-22T16:37:59.541Z,1.21
2023-11-22T16:40:25.702Z,1.10
2023-11-22T16:42:51.859Z,1.10
2023-11-22T16:45:18.022Z,0.88
2023-11-22T16:47:44.338Z,0.75
2023-11-22T16:50:10.620Z,0.99
2023-11-22T16:52:36.828Z,0.94
2023-11-22T16:55:03.002Z,0.81
2023-11-22T16:57:29.163Z,0.69
2023-11-22T16:59:55.399Z,0.68
2023-11-22T17:02:21.596Z,0.60
2023-11-22T17:04:47.790Z,0.56
2023-11-22T17:07:13.962Z,0.68
2023-11-22T17:09:40.123Z,0.75
2023-11-22T17:12:06.341Z,0.65
2023-11-22T17:14:32.561Z,0.56
2023-11-22T17:16:58.745Z,0.49
2023-11-22T17:19:24.924Z,0.58
2023-11-22T17:21:51.092Z,0.62
2023-11-22T17:24:17.265Z,0.78
2023-11-22T17:26:43.453Z,0.77
2023-11-22T17:29:09.632Z,0.53
2023-11-22T17:31:35.845Z,0.58
2023-11-22T17:34:02.274Z,0.51
2023-11-22T17:36:28.524Z,0.86
2023-11-22T17:38:54.708Z,0.79
2023-11-22T17:41:20.863Z,0.56
2023-11-22T17:43:47.014Z,-0.71
2023-11-22T17:46:13.171Z,-0.05
2023-11-22T17:48:39.395Z,0.34
2023-11-22T17:51:05.641Z,0.36
2023-11-22T17:53:31.926Z,0.27
2023-11-22T17:55:58.117Z,0.30
2023-11-22T17:58:24.275Z,0.31
2023-11-22T18:00:50.434Z,0.24
2023-11-22T18:03:16.734Z,0.11
2023-11-22T18:05:43.012Z,0.01
2023-11-22T18:08:09.203Z,0.14
2023-11-22T18:10:41.913Z,0.25
2023-11-22T18:13:15.356Z,0.17
2023-11-22T18:15:42.281Z,0.14
2023-11-22T18:18:08.594Z,0.17
2023-11-22T18:20:34.882Z,0.00
2023-11-22T18:23:01.065Z,0.35
2023-11-22T18:25:27.237Z,0.26
2023-11-22T18:27:53.432Z,0.32
2023-11-22T18:30:19.587Z,0.35
2023-11-22T18:32:45.792Z,0.25
2023-11-22T18:35:12.666Z,0.18
2023-11-22T18:37:38.849Z,0.28
2023-11-22T18:40:05.021Z,0.25
2023-11-22T18:42:31.179Z,0.18
2023-11-22T18:44:57.403Z,0.23
2023-11-22T18:47:23.605Z,0.14
2023-11-22T18:49:49.771Z,0.07
2023-11-22T18:52:15.944Z,0.11
2023-11-22T18:54:43.115Z,0.04
2023-11-22T18:57:09.413Z,-0.01
2023-11-22T18:59:35.628Z,-0.15
2023-11-22T19:02:01.957Z,-0.15
2023-11-22T19:04:28.194Z,-0.16
2023-11-22T19:06:54.362Z,-0.19
2023-11-22T19:09:20.527Z,-0.16
2023-11-22T19:11:46.751Z,-0.44
2023-11-22T19:14:12.938Z,-0.49
2023-11-22T19:16:39.123Z,-0.40
2023-11-22T19:19:05.284Z,-0.28
2023-11-22T19:21:31.492Z,-0.25
2023-11-22T19:23:57.707Z,-0.19
2023-11-22T19:26:23.885Z,-0.19
2023-11-22T19:28:50.062Z,-0.30
2023-11-22T19:31:16.222Z,-0.44
2023-11-22T19:33:42.478Z,-0.58
2023-11-22T19:36:08.682Z,-0.40
2023-11-22T19:38:34.858Z,-0.29
2023-11-22T19:41:01.040Z,-0.18
2023-11-22T19:43:27.200Z,-0.25
2023-11-22T19:45:53.419Z,-0.26
2023-11-22T19:48:19.676Z,-0.21
2023-11-22T19:50:45.912Z,-0.23
2023-11-22T19:53:12.153Z,-0.30
2023-11-22T19:55:38.327Z,-0.26
2023-11-22T19:58:04.643Z,-0.38
2023-11-22T20:00:30.821Z,-0.23
2023-11-22T20:02:57.080Z,-0.32
2023-11-22T20:05:23.323Z,-0.34
2023-11-22T20:07:49.479Z,-0.35
2023-11-22T20:10:15.684Z,-0.57
2023-11-22T20:12:41.908Z,-0.55
2023-11-22T20:15:08.133Z,-0.64
2023-11-22T20:17:34.364Z,-0.64
2023-11-22T20:20:00.592Z,-0.53
2023-11-22T20:22:26.831Z,-0.58
2023-11-22T20:24:53.017Z,-0.80
2023-11-22T20:27:19.197Z,-0.61
2023-11-22T20:29:45.386Z,-0.67
2023-11-22T20:32:11.554Z,-0.45
2023-11-22T20:34:37.809Z,-0.46
2023-11-22T20:37:04.049Z,-0.38
2023-11-22T20:39:30.282Z,-0.65
2023-11-22T20:41:56.512Z,-0.77
2023-11-22T20:44:22.678Z,-0.64
2023-11-22T20:46:49.845Z,-0.52
2023-11-22T20:49:16.214Z,-0.54
2023-11-22T20:51:42.402Z,-0.31
2023-11-22T20:54:08.592Z,-0.24
2023-11-22T20:56:34.791Z,-0.40
2023-11-22T20:59:00.972Z,-0.50
2023-11-22T21:01:29.983Z,-0.58
2023-11-22T21:03:56.257Z,-0.73
2023-11-22T21:06:22.455Z,-0.62
2023-11-22T21:08:48.651Z,-0.39
2023-11-22T21:11:14.845Z,-0.75
2023-11-22T21:13:40.999Z,-0.50
2023-11-22T21:16:09.423Z,-0.51
2023-11-22T21:18:35.956Z,-0.74
2023-11-22T21:21:02.216Z,-0.70
2023-11-22T21:23:28.389Z,-0.67
2023-11-22T21:25:54.544Z,-0.68
2023-11-22T21:28:20.697Z,-0.78
2023-11-22T21:30:46.859Z,-0.93
2023-11-22T21:33:13.111Z,-0.93
2023-11-22T21:35:39.393Z,-0.99
2023-11-22T21:38:05.587Z,-1.08
2023-11-22T21:40:31.772Z,-0.96
2023-11-22T21:42:57.943Z,-0.80
2023-11-22T21:45:24.113Z,-0.82
2023-11-22T21:47:50.442Z,-0.85
2023-11-22T21:50:16.706Z,-0.71
2023-11-22T21:52:42.857Z,-0.61
2023-11-22T21:55:09.055Z,-0.59
2023-11-22T21:57:35.226Z,-0.72
2023-11-22T22:00:01.525Z,-1.39
2023-11-22T22:02:27.803Z,-1.53
2023-11-22T22:04:54.044Z,-0.99
2023-11-22T22:07:20.191Z,-1.08
2023-11-22T22:09:46.346Z,-1.12
2023-11-22T22:12:12.576Z,-1.06
2023-11-22T22:14:38.772Z,-1.12
2023-11-22T22:17:04.941Z,-1.07
2023-11-22T22:19:31.146Z,-1.13
2023-11-22T22:21:57.311Z,-1.03
2023-11-22T22:24:23.493Z,-0.82
2023-11-22T22:26:49.698Z,-0.98
2023-11-22T22:29:15.927Z,-1.08
2023-11-22T22:31:42.087Z,-1.01
2023-11-22T22:34:08.249Z,-0.92
2023-11-22T22:36:34.433Z,-1.08
2023-11-22T22:39:00.629Z,-0.99
2023-11-22T22:41:26.843Z,-1.14
2023-11-22T22:43:53.064Z,-0.97
2023-11-22T22:46:19.255Z,-1.03
2023-11-22T22:48:45.903Z,-0.93
2023-11-22T22:51:12.583Z,-1.03
2023-11-22T22:53:39.318Z,-1.20
2023-11-22T22:56:05.479Z,-1.17
2023-11-22T22:58:31.631Z,-0.75
2023-11-22T23:00:57.851Z,-0.71
2023-11-22T23:03:24.153Z,-1.17
2023-11-22T23:05:50.475Z,-1.08
2023-11-22T23:08:16.688Z,-1.07
2023-11-22T23:10:42.862Z,-1.24
2023-11-22T23:13:09.026Z,-1.45
2023-11-22T23:15:35.185Z,-1.61
2023-11-22T23:18:01.380Z,-1.64
2023-11-22T23:20:31.300Z,-1.30
2023-11-22T23:23:00.738Z,-1.38
2023-11-22T23:25:26.914Z,-1.25
2023-11-22T23:27:53.071Z,-1.37
2023-11-22T23:30:19.230Z,-1.27
2023-11-22T23:32:45.557Z,-1.37
2023-11-22T23:35:11.794Z,-1.31
2023-11-22T23:37:37.942Z,-1.44
2023-11-22T23:40:04.110Z,-1.42
2023-11-22T23:42:30.270Z,-1.26
2023-11-22T23:44:56.463Z,-1.47
2023-11-22T23:47:22.648Z,-1.53
2023-11-22T23:49:48.842Z,-1.38
2023-11-22T23:52:14.997Z,-1.29
2023-11-22T23:54:41.134Z,-1.33
2023-11-22T23:57:07.354Z,-1.43
2023-11-22T23:59:33.532Z,-1.39
